Onamia, Minnesota
Current Conditions -  °F | °C
As of 6:33 AM on Friday 28 Nov 2014 (Local Time) from KBRD Reporting Station
Light Snow Light Snow  
Wind Chill:   Ceiling: 6000
Heat Index:   Visibility: 2.5mi
Dew Point:   Wind: 5mph
Humidity: 84%   Direction: NA
Pressure: 30"   Gusts: NA
Location:  46.07°N, 93.67°W
Report Text: KBRD 281233Z AUTO VRB04KT 2 1/2SM -SN BR SCT028 OVC060 M13/M15 A3000 RMK AO2 SNB09 P0000 T11281150
Loading
Personal Weather Stations






























Interactive Weather Map New forecast layout! Learn more

10-Day Weather Forecast

Advertisements
Track Severe Weather on mobile